Terminal Aerodrome Forecast
Issued by NWS

Home | Current Version | Previous Version | Text Only | Print | Product List | Glossary On
Versions: 1 2 3 4 5 6 7 8 9 10 11 12 13 14 15 16 17 18
737
FTUS46 KLOX 031859 AAA
TAFPMD
TAF AMD
KPMD 031859Z 0319/0418 07015KT P6SM SKC
     FM032200 VRB03KT P6SM SCT200
     FM040400 23007KT P6SM SCT200=

USA.gov is the U.S. government's official web portal to all federal, state and local government web resources and services.